Time,TemperatureF,DewpointF,PressureIn,WindDirection,WindDirectionDegrees,WindSpeedMPH,WindSpeedGustMPH,Humidity,HourlyPrecipIn,Conditions,Clouds,dailyrainin,SoftwareType,DateUTC
2013-02-04 00:03:00,11.1,7.5,30.03,ENE,57,0.0,0.0,85,0.00,CLR,,0.00,WeatherDisplay:10.37,2013-02-04 06:03:00,
2013-02-04 00:08:00,11.1,7.5,30.03,NE,55,2.3,2.3,85,0.00,CLR,,0.00,WeatherDisplay:10.37,2013-02-04 06:08:00,
2013-02-04 00:13:00,10.9,7.3,30.03,ENE,67,4.6,4.6,85,0.00,CLR,,0.00,WeatherDisplay:10.37,2013-02-04 06:13:00,
2013-02-04 00:18:00,10.8,7.2,30.04,East,91,3.5,3.5,85,0.00,CLR,,0.00,WeatherDisplay:10.37,2013-02-04 06:18:00,
2013-02-04 00:23:00,10.8,7.2,30.04,East,80,3.5,3.5,85,0.00,CLR,,0.00,WeatherDisplay:10.37,2013-02-04 06:23:00,
2013-02-04 00:28:00,10.7,7.1,30.03,ENE,61,3.5,3.5,85,0.00,CLR,,0.00,WeatherDisplay:10.37,2013-02-04 06:28:00,
2013-02-04 00:33:00,10.6,7.0,30.04,ENE,62,2.3,2.3,85,0.00,CLR,,0.00,WeatherDisplay:10.37,2013-02-04 06:33:00,
2013-02-04 00:38:00,10.6,7.0,30.03,ENE,67,3.5,3.5,85,0.00,CLR,,0.00,WeatherDisplay:10.37,2013-02-04 06:38:00,
2013-02-04 00:43:00,10.6,7.0,30.04,NE,51,3.5,3.5,85,0.00,CLR,,0.00,WeatherDisplay:10.37,2013-02-04 06:43:00,
2013-02-04 00:48:00,10.7,7.1,30.04,NE,53,0.0,0.0,85,0.00,CLR,,0.00,WeatherDisplay:10.37,2013-02-04 06:48:00,
2013-02-04 00:53:00,10.6,7.0,30.03,ENE,62,3.5,3.5,85,0.00,CLR,,0.00,WeatherDisplay:10.37,2013-02-04 06:53:00,
2013-02-04 00:58:00,10.6,7.0,30.03,ENE,60,5.8,5.8,85,0.00,CLR,,0.00,WeatherDisplay:10.37,2013-02-04 06:58:00,
2013-02-04 01:03:00,10.5,6.9,30.04,ENE,59,1.1,1.2,85,0.00,CLR,,0.00,WeatherDisplay:10.37,2013-02-04 07:03:00,
2013-02-04 01:08:00,10.5,6.9,30.04,NE,55,3.5,3.5,85,0.00,CLR,,0.00,WeatherDisplay:10.37,2013-02-04 07:08:00,
2013-02-04 01:13:00,10.5,6.9,30.04,NE,36,3.5,3.5,85,0.00,CLR,,0.00,WeatherDisplay:10.37,2013-02-04 07:13:00,
2013-02-04 01:18:00,10.4,6.8,30.04,NE,40,3.5,3.5,85,0.00,CLR,,0.00,WeatherDisplay:10.37,2013-02-04 07:18:00,
2013-02-04 01:23:00,10.3,6.7,30.04,ENE,59,3.5,3.5,85,0.00,CLR,,0.00,WeatherDisplay:10.37,2013-02-04 07:23:00,
2013-02-04 01:28:00,10.2,6.6,30.03,ENE,69,3.5,3.5,85,0.00,CLR,,0.00,WeatherDisplay:10.37,2013-02-04 07:28:00,
2013-02-04 01:33:00,10.1,6.5,30.03,NE,49,3.5,3.5,85,0.00,CLR,,0.00,WeatherDisplay:10.37,2013-02-04 07:33:00,
2013-02-04 01:38:00,10.0,6.4,30.04,NE,36,3.5,3.5,85,0.00,CLR,,0.00,WeatherDisplay:10.37,2013-02-04 07:38:00,
2013-02-04 01:43:00,9.9,6.3,30.03,ENE,64,2.3,2.3,85,0.00,CLR,,0.00,WeatherDisplay:10.37,2013-02-04 07:43:00,
2013-02-04 01:48:00,9.9,6.3,30.04,NE,34,3.5,3.5,85,0.00,CLR,,0.00,WeatherDisplay:10.37,2013-02-04 07:48:00,
2013-02-04 01:53:00,9.9,6.3,30.04,NE,44,3.5,3.5,85,0.00,CLR,,0.00,WeatherDisplay:10.37,2013-02-04 07:53:00,
2013-02-04 01:58:00,9.9,6.3,30.04,ENE,63,5.8,5.8,85,0.00,CLR,,0.00,WeatherDisplay:10.37,2013-02-04 07:58:00,
2013-02-04 02:03:00,9.9,6.3,30.04,NE,44,4.6,4.6,85,0.00,CLR,,0.00,WeatherDisplay:10.37,2013-02-04 08:03:00,
2013-02-04 02:08:00,9.9,6.3,30.04,ENE,57,3.5,3.5,85,0.00,CLR,,0.00,WeatherDisplay:10.37,2013-02-04 08:08:00,
2013-02-04 02:13:00,9.9,6.3,30.04,NE,45,0.0,0.6,85,0.00,CLR,,0.00,WeatherDisplay:10.37,2013-02-04 08:13:00,
2013-02-04 02:18:00,9.9,6.3,30.05,NNE,24,5.8,5.8,85,0.00,CLR,,0.00,WeatherDisplay:10.37,2013-02-04 08:18:00,
2013-02-04 02:23:00,9.8,6.2,30.05,NE,38,3.5,3.5,85,0.00,CLR,,0.00,WeatherDisplay:10.37,2013-02-04 08:23:00,
2013-02-04 02:29:00,9.8,6.2,30.05,NNE,28,3.5,3.5,85,0.00,CLR,,0.00,WeatherDisplay:10.37,2013-02-04 08:29:00,
2013-02-04 02:34:00,9.7,5.8,30.05,NE,49,3.5,3.5,84,0.00,CLR,,0.00,WeatherDisplay:10.37,2013-02-04 08:34:00,
2013-02-04 02:39:00,9.6,5.7,30.05,NE,55,5.8,5.8,84,0.00,CLR,,0.00,WeatherDisplay:10.37,2013-02-04 08:39:00,
2013-02-04 02:44:00,9.6,5.7,30.05,ENE,66,3.5,3.6,84,0.00,CLR,,0.00,WeatherDisplay:10.37,2013-02-04 08:44:00,
2013-02-04 02:49:00,9.7,6.1,30.05,NNE,33,3.5,3.5,85,0.00,CLR,,0.00,WeatherDisplay:10.37,2013-02-04 08:49:00,
2013-02-04 02:54:00,9.8,6.2,30.05,NNE,29,4.6,4.6,85,0.00,CLR,,0.00,WeatherDisplay:10.37,2013-02-04 08:54:00,
2013-02-04 02:59:00,9.8,6.2,30.05,NE,38,3.5,3.5,85,0.00,CLR,,0.00,WeatherDisplay:10.37,2013-02-04 08:59:00,
2013-02-04 03:04:00,9.6,6.0,30.05,NE,42,4.6,4.6,85,0.00,CLR,,0.00,WeatherDisplay:10.37,2013-02-04 09:04:00,
2013-02-04 03:09:00,9.4,5.5,30.05,NE,44,2.3,2.3,84,0.00,CLR,,0.00,WeatherDisplay:10.37,2013-02-04 09:09:00,
2013-02-04 03:14:00,9.2,5.3,30.05,NE,41,3.5,3.5,84,0.00,CLR,,0.00,WeatherDisplay:10.37,2013-02-04 09:14:00,
2013-02-04 03:19:00,9.0,5.1,30.05,NE,54,3.5,3.5,84,0.00,CLR,,0.00,WeatherDisplay:10.37,2013-02-04 09:19:00,
2013-02-04 03:24:00,9.0,5.1,30.05,NE,55,2.3,2.3,84,0.00,CLR,,0.00,WeatherDisplay:10.37,2013-02-04 09:24:00,
2013-02-04 03:29:00,8.8,5.0,30.05,NE,53,3.5,3.5,84,0.00,CLR,,0.00,WeatherDisplay:10.37,2013-02-04 09:29:00,
2013-02-04 03:34:00,8.5,4.7,30.05,NE,46,2.3,2.3,84,0.00,CLR,,0.00,WeatherDisplay:10.37,2013-02-04 09:34:00,
2013-02-04 03:39:00,8.3,4.5,30.05,NE,44,0.0,0.0,84,0.00,CLR,,0.00,WeatherDisplay:10.37,2013-02-04 09:39:00,
2013-02-04 03:44:00,8.1,4.3,30.05,NE,44,0.0,0.0,84,0.00,CLR,,0.00,WeatherDisplay:10.37,2013-02-04 09:44:00,
2013-02-04 03:49:00,8.0,4.2,30.05,NE,44,0.0,0.0,84,0.00,CLR,,0.00,WeatherDisplay:10.37,2013-02-04 09:49:00,
2013-02-04 03:54:00,7.7,3.9,30.06,NE,44,0.0,0.0,84,0.00,CLR,,0.00,WeatherDisplay:10.37,2013-02-04 09:54:00,
2013-02-04 03:59:00,7.4,3.6,30.06,NE,44,3.5,3.5,84,0.00,CLR,,0.00,WeatherDisplay:10.37,2013-02-04 09:59:00,
2013-02-04 04:04:00,7.4,3.6,30.06,NE,44,1.1,0.0,84,0.00,CLR,,0.00,WeatherDisplay:10.37,2013-02-04 10:04:00,
2013-02-04 04:09:00,7.3,3.5,30.06,NE,44,0.0,0.0,84,0.00,CLR,,0.00,WeatherDisplay:10.37,2013-02-04 10:09:00,
2013-02-04 04:14:00,7.1,3.3,30.06,NE,44,0.0,0.0,84,0.00,CLR,,0.00,WeatherDisplay:10.37,2013-02-04 10:14:00,
2013-02-04 04:19:00,7.0,3.2,30.06,NE,44,0.0,0.0,84,0.00,CLR,,0.00,WeatherDisplay:10.37,2013-02-04 10:19:00,
2013-02-04 04:24:00,7.0,3.2,30.07,NE,44,0.0,0.0,84,0.00,CLR,,0.00,WeatherDisplay:10.37,2013-02-04 10:24:00,
2013-02-04 04:29:00,6.8,3.0,30.06,NE,44,0.0,0.0,84,0.00,CLR,,0.00,WeatherDisplay:10.37,2013-02-04 10:29:00,
2013-02-04 04:34:00,6.7,3.1,30.06,NE,44,0.0,0.0,85,0.00,CLR,,0.00,WeatherDisplay:10.37,2013-02-04 10:34:00,
2013-02-04 04:39:00,6.7,3.1,30.07,NE,44,0.0,0.0,85,0.00,CLR,,0.00,WeatherDisplay:10.37,2013-02-04 10:39:00,
2013-02-04 04:44:00,6.5,3.0,30.07,NE,44,0.0,0.0,85,0.00,CLR,,0.00,WeatherDisplay:10.37,2013-02-04 10:44:00,
2013-02-04 04:49:00,6.3,2.8,30.07,NE,44,0.0,0.0,85,0.00,CLR,,0.00,WeatherDisplay:10.37,2013-02-04 10:49:00,
2013-02-04 04:54:00,6.3,2.8,30.07,NE,44,0.0,0.0,85,0.00,CLR,,0.00,WeatherDisplay:10.37,2013-02-04 10:54:00,
2013-02-04 04:59:00,6.2,2.7,30.07,NE,44,0.0,0.0,85,0.00,CLR,,0.00,WeatherDisplay:10.37,2013-02-04 10:59:00,
2013-02-04 05:04:00,6.0,2.5,30.07,NE,44,0.0,0.0,85,0.00,CLR,,0.00,WeatherDisplay:10.37,2013-02-04 11:04:00,
2013-02-04 05:09:00,6.1,2.6,30.07,NE,44,0.0,0.0,85,0.00,CLR,,0.00,WeatherDisplay:10.37,2013-02-04 11:09:00,
2013-02-04 05:14:00,6.1,2.6,30.07,NE,44,0.0,0.0,85,0.00,CLR,,0.00,WeatherDisplay:10.37,2013-02-04 11:14:00,
2013-02-04 05:19:00,5.9,2.4,30.08,NE,44,0.0,0.0,85,0.00,CLR,,0.00,WeatherDisplay:10.37,2013-02-04 11:19:00,
2013-02-04 05:24:00,5.7,2.2,30.08,NE,44,0.0,0.0,85,0.00,CLR,,0.00,WeatherDisplay:10.37,2013-02-04 11:24:00,
2013-02-04 05:29:00,5.5,2.0,30.08,NE,44,0.0,0.0,85,0.00,CLR,,0.00,WeatherDisplay:10.37,2013-02-04 11:29:00,
2013-02-04 05:34:00,5.4,1.9,30.08,NE,44,0.0,0.0,85,0.00,CLR,,0.00,WeatherDisplay:10.37,2013-02-04 11:34:00,
2013-02-04 05:39:00,5.4,1.9,30.08,NE,44,0.0,0.0,85,0.00,CLR,,0.00,WeatherDisplay:10.37,2013-02-04 11:39:00,
2013-02-04 05:44:00,5.5,2.0,30.08,NE,44,0.0,0.0,85,0.00,CLR,,0.00,WeatherDisplay:10.37,2013-02-04 11:44:00,
2013-02-04 05:49:00,5.7,2.2,30.08,NE,44,0.0,0.0,85,0.00,CLR,,0.00,WeatherDisplay:10.37,2013-02-04 11:49:00,
2013-02-04 05:54:00,6.1,2.8,30.08,NE,44,0.0,0.0,86,0.00,CLR,,0.00,WeatherDisplay:10.37,2013-02-04 11:54:00,
2013-02-04 05:59:00,6.2,2.9,30.09,NE,44,0.0,0.0,86,0.00,CLR,,0.00,WeatherDisplay:10.37,2013-02-04 11:59:00,
2013-02-04 06:04:00,6.1,2.6,30.09,NE,44,0.0,0.0,85,0.00,CLR,,0.00,WeatherDisplay:10.37,2013-02-04 12:04:00,
2013-02-04 06:09:00,5.8,2.3,30.09,NE,44,0.0,0.0,85,0.00,CLR,,0.00,WeatherDisplay:10.37,2013-02-04 12:09:00,
2013-02-04 06:14:00,5.3,1.5,30.09,NE,44,0.0,0.0,84,0.00,CLR,,0.00,WeatherDisplay:10.37,2013-02-04 12:14:00,
2013-02-04 06:19:00,5.0,1.5,30.09,NE,44,0.0,0.0,85,0.00,CLR,,0.00,WeatherDisplay:10.37,2013-02-04 12:19:00,
2013-02-04 06:24:00,4.9,1.4,30.09,NE,44,0.0,0.0,85,0.00,CLR,,0.00,WeatherDisplay:10.37,2013-02-04 12:24:00,
2013-02-04 06:29:00,4.7,1.2,30.09,NE,44,0.0,0.0,85,0.00,CLR,,0.00,WeatherDisplay:10.37,2013-02-04 12:29:00,
2013-02-04 06:34:00,4.4,0.6,30.10,NE,44,0.0,0.0,84,0.00,CLR,,0.00,WeatherDisplay:10.37,2013-02-04 12:34:00,
2013-02-04 06:39:00,4.0,0.2,30.10,NE,44,0.0,0.0,84,0.00,CLR,,0.00,WeatherDisplay:10.37,2013-02-04 12:39:00,
2013-02-04 06:44:00,3.6,-0.2,30.10,NE,44,0.0,0.0,84,0.00,CLR,,0.00,WeatherDisplay:10.37,2013-02-04 12:44:00,
2013-02-04 06:49:00,3.5,-0.2,30.10,NE,44,1.1,0.0,84,0.00,CLR,,0.00,WeatherDisplay:10.37,2013-02-04 12:49:00,
2013-02-04 06:54:00,3.7,-0.1,30.10,NE,44,0.0,0.0,84,0.00,CLR,,0.00,WeatherDisplay:10.37,2013-02-04 12:54:00,
2013-02-04 06:59:00,4.1,0.6,30.10,NE,44,0.0,0.0,85,0.00,CLR,,0.00,WeatherDisplay:10.37,2013-02-04 12:59:00,
2013-02-04 07:04:00,4.2,0.7,30.10,NE,44,1.1,0.0,85,0.00,CLR,,0.00,WeatherDisplay:10.37,2013-02-04 13:04:00,
2013-02-04 07:09:00,4.2,0.4,30.11,NE,44,0.0,0.0,84,0.00,CLR,,0.00,WeatherDisplay:10.37,2013-02-04 13:09:00,
2013-02-04 07:14:00,4.2,0.4,30.10,NE,44,0.0,0.0,84,0.00,CLR,,0.00,WeatherDisplay:10.37,2013-02-04 13:14:00,
2013-02-04 07:19:00,4.3,0.5,30.10,NE,43,0.0,0.0,84,0.00,CLR,,0.00,WeatherDisplay:10.37,2013-02-04 13:19:00,
2013-02-04 07:24:00,4.2,0.4,30.10,NE,42,0.0,0.0,84,0.00,CLR,,0.00,WeatherDisplay:10.37,2013-02-04 13:24:00,
2013-02-04 07:29:00,4.1,0.3,30.10,NE,42,0.0,0.0,84,0.00,CLR,,0.00,WeatherDisplay:10.37,2013-02-04 13:29:00,
2013-02-04 07:34:00,3.9,-0.1,30.10,NE,43,0.0,0.0,83,0.00,CLR,,0.00,WeatherDisplay:10.37,2013-02-04 13:34:00,
2013-02-04 07:39:00,3.7,-0.3,30.10,NE,42,0.0,0.0,83,0.00,CLR,,0.00,WeatherDisplay:10.37,2013-02-04 13:39:00,
2013-02-04 07:44:00,3.7,-0.3,30.10,NE,42,0.0,0.0,83,0.00,CLR,,0.00,WeatherDisplay:10.37,2013-02-04 13:44:00,
2013-02-04 07:50:00,3.7,-0.3,30.10,NE,42,0.0,0.0,83,0.00,CLR,,0.00,WeatherDisplay:10.37,2013-02-04 13:50:00,
2013-02-04 07:55:00,3.8,0.0,30.10,NE,42,0.0,0.0,84,0.00,CLR,,0.00,WeatherDisplay:10.37,2013-02-04 13:55:00,
2013-02-04 08:00:00,3.9,0.1,30.10,NE,42,0.0,0.0,84,0.00,CLR,,0.00,WeatherDisplay:10.37,2013-02-04 14:00:00,
2013-02-04 08:05:00,4.2,0.4,30.11,NE,42,0.0,0.0,84,0.00,CLR,,0.00,WeatherDisplay:10.37,2013-02-04 14:05:00,
2013-02-04 08:10:00,4.5,0.7,30.11,NE,42,0.0,0.0,84,0.00,CLR,,0.00,WeatherDisplay:10.37,2013-02-04 14:10:00,
2013-02-04 08:15:00,4.8,1.0,30.11,NE,42,0.0,0.0,84,0.00,CLR,,0.00,WeatherDisplay:10.37,2013-02-04 14:15:00,
2013-02-04 08:20:00,4.7,0.7,30.11,NE,43,0.0,0.0,83,0.00,CLR,,0.00,WeatherDisplay:10.37,2013-02-04 14:20:00,
2013-02-04 08:25:00,5.0,1.0,30.11,NE,42,0.0,0.0,83,0.00,CLR,,0.00,WeatherDisplay:10.37,2013-02-04 14:25:00,
2013-02-04 08:30:00,5.2,1.2,30.11,NE,42,0.0,0.0,83,0.00,CLR,,0.00,WeatherDisplay:10.37,2013-02-04 14:30:00,
2013-02-04 08:35:00,5.1,1.1,30.11,NE,43,0.0,0.0,83,0.00,CLR,,0.00,WeatherDisplay:10.37,2013-02-04 14:35:00,
2013-02-04 08:40:00,5.1,1.1,30.11,NE,42,0.0,0.0,83,0.00,CLR,,0.00,WeatherDisplay:10.37,2013-02-04 14:40:00,
2013-02-04 08:45:00,5.6,1.6,30.11,NE,43,0.0,0.0,83,0.00,CLR,,0.00,WeatherDisplay:10.37,2013-02-04 14:45:00,
2013-02-04 08:50:00,6.0,1.9,30.11,NE,42,0.0,0.0,83,0.00,CLR,,0.00,WeatherDisplay:10.37,2013-02-04 14:50:00,
2013-02-04 08:55:00,6.0,1.7,30.12,NE,42,0.0,0.0,82,0.00,CLR,,0.00,WeatherDisplay:10.37,2013-02-04 14:55:00,
2013-02-04 09:00:00,6.5,2.2,30.12,NE,43,0.0,0.0,82,0.00,CLR,,0.00,WeatherDisplay:10.37,2013-02-04 15:00:00,
2013-02-04 09:05:00,6.8,2.5,30.12,NE,42,0.0,0.0,82,0.00,CLR,,0.00,WeatherDisplay:10.37,2013-02-04 15:05:00,
2013-02-04 09:10:00,6.6,2.0,30.12,NE,43,0.0,0.0,81,0.00,CLR,,0.00,WeatherDisplay:10.37,2013-02-04 15:10:00,
2013-02-04 09:15:00,6.3,1.4,30.12,NE,42,0.0,0.0,80,0.00,CLR,,0.00,WeatherDisplay:10.37,2013-02-04 15:15:00,
2013-02-04 09:20:00,6.0,0.9,30.12,NNE,32,1.1,0.0,79,0.00,CLR,,0.00,WeatherDisplay:10.37,2013-02-04 15:20:00,
2013-02-04 09:25:00,6.1,0.7,30.12,NNE,30,2.3,2.3,78,0.00,CLR,,0.00,WeatherDisplay:10.37,2013-02-04 15:25:00,
2013-02-04 09:30:00,6.4,1.0,30.13,NNE,31,0.0,0.0,78,0.00,CLR,,0.00,WeatherDisplay:10.37,2013-02-04 15:30:00,
2013-02-04 09:35:00,6.7,1.0,30.13,NNE,31,0.0,0.0,77,0.00,CLR,,0.00,WeatherDisplay:10.37,2013-02-04 15:35:00,
2013-02-04 09:40:00,6.7,0.7,30.13,NNE,30,2.0,2.0,76,0.00,CLR,,0.00,WeatherDisplay:10.37,2013-02-04 15:40:00,
2013-02-04 09:45:00,6.8,0.8,30.13,NNE,30,1.1,0.0,76,0.00,CLR,,0.00,WeatherDisplay:10.37,2013-02-04 15:45:00,
2013-02-04 09:50:00,6.9,0.6,30.13,NNE,29,0.0,0.0,75,0.00,CLR,,0.00,WeatherDisplay:10.37,2013-02-04 15:50:00,
2013-02-04 09:55:00,7.3,1.0,30.13,NNE,29,0.0,0.0,75,0.00,CLR,,0.00,WeatherDisplay:10.37,2013-02-04 15:55:00,
2013-02-04 10:00:00,7.4,0.8,30.13,NNE,28,2.3,2.3,74,0.00,CLR,,0.00,WeatherDisplay:10.37,2013-02-04 16:00:00,
2013-02-04 10:05:00,7.6,1.0,30.13,NNE,28,2.3,2.3,74,0.00,CLR,,0.00,WeatherDisplay:10.37,2013-02-04 16:05:00,
2013-02-04 10:10:00,8.0,1.4,30.14,NNE,28,2.3,2.3,74,0.00,CLR,,0.00,WeatherDisplay:10.37,2013-02-04 16:10:00,
2013-02-04 10:15:00,8.3,1.7,30.14,NNE,14,3.5,3.5,74,0.00,CLR,,0.00,WeatherDisplay:10.37,2013-02-04 16:15:00,
2013-02-04 10:20:00,8.4,1.5,30.14,NNE,13,3.5,3.5,73,0.00,CLR,,0.00,WeatherDisplay:10.37,2013-02-04 16:20:00,
2013-02-04 10:25:00,8.5,1.6,30.14,NNE,13,2.3,2.3,73,0.00,CLR,,0.00,WeatherDisplay:10.37,2013-02-04 16:25:00,
2013-02-04 10:30:00,8.7,1.5,30.14,North,5,2.3,2.3,72,0.00,CLR,,0.00,WeatherDisplay:10.37,2013-02-04 16:30:00,
2013-02-04 10:35:00,8.7,1.2,30.14,North,5,2.3,2.3,71,0.00,CLR,,0.00,WeatherDisplay:10.37,2013-02-04 16:35:00,
2013-02-04 10:40:00,9.0,1.8,30.14,North,360,1.1,1.1,72,0.00,CLR,,0.00,WeatherDisplay:10.37,2013-02-04 16:40:00,
2013-02-04 10:45:00,9.2,2.0,30.14,North,5,0.0,0.0,72,0.00,CLR,,0.00,WeatherDisplay:10.37,2013-02-04 16:45:00,
2013-02-04 10:50:00,9.5,2.0,30.14,North,360,0.0,0.0,71,0.00,CLR,,0.00,WeatherDisplay:10.37,2013-02-04 16:50:00,
2013-02-04 10:55:00,9.7,1.9,30.14,North,360,2.3,2.3,70,0.00,CLR,,0.00,WeatherDisplay:10.37,2013-02-04 16:55:00,
2013-02-04 11:00:00,9.8,2.0,30.14,North,5,0.0,0.0,70,0.00,CLR,,0.00,WeatherDisplay:10.37,2013-02-04 17:00:00,
2013-02-04 11:05:00,10.0,2.5,30.14,North,5,0.0,0.0,71,0.00,CLR,,0.00,WeatherDisplay:10.37,2013-02-04 17:05:00,
2013-02-04 11:10:00,10.4,2.9,30.13,North,360,0.0,0.0,71,0.00,CLR,,0.00,WeatherDisplay:10.37,2013-02-04 17:10:00,
2013-02-04 11:15:00,10.5,2.3,30.13,North,5,0.0,0.0,69,0.00,CLR,,0.00,WeatherDisplay:10.37,2013-02-04 17:15:00,
2013-02-04 11:20:00,10.5,2.3,30.12,North,360,0.0,0.0,69,0.00,CLR,,0.00,WeatherDisplay:10.37,2013-02-04 17:20:00,
2013-02-04 11:25:00,10.9,3.0,30.12,North,5,0.0,0.0,70,0.00,CLR,,0.00,WeatherDisplay:10.37,2013-02-04 17:25:00,
2013-02-04 11:30:00,11.3,3.7,30.11,North,5,0.0,0.0,71,0.00,CLR,,0.00,WeatherDisplay:10.37,2013-02-04 17:30:00,
2013-02-04 11:35:00,11.5,3.0,30.11,North,360,0.0,0.0,68,0.00,CLR,,0.00,WeatherDisplay:10.37,2013-02-04 17:35:00,
2013-02-04 11:40:00,11.7,3.2,30.10,North,5,0.0,0.0,68,0.00,CLR,,0.00,WeatherDisplay:10.37,2013-02-04 17:40:00,
2013-02-04 11:45:00,11.7,2.8,30.10,North,5,0.0,0.0,67,0.00,CLR,,0.00,WeatherDisplay:10.37,2013-02-04 17:45:00,
2013-02-04 11:50:00,12.0,3.5,30.10,North,5,0.0,0.0,68,0.00,CLR,,0.00,WeatherDisplay:10.37,2013-02-04 17:50:00,
2013-02-04 11:55:00,12.2,3.3,30.10,North,360,0.0,0.0,67,0.00,CLR,,0.00,WeatherDisplay:10.37,2013-02-04 17:55:00,
2013-02-04 12:00:00,12.4,3.5,30.09,North,5,0.0,0.0,67,0.00,CLR,,0.00,WeatherDisplay:10.37,2013-02-04 18:00:00,
2013-02-04 12:05:00,12.8,3.9,30.09,North,9,0.0,0.1,67,0.00,CLR,,0.00,WeatherDisplay:10.37,2013-02-04 18:05:00,
2013-02-04 12:10:00,13.3,4.4,30.10,North,9,0.0,0.4,67,0.00,CLR,,0.00,WeatherDisplay:10.37,2013-02-04 18:10:00,
2013-02-04 12:15:00,13.1,3.5,30.10,North,5,2.3,2.3,65,0.00,CLR,,0.00,WeatherDisplay:10.37,2013-02-04 18:15:00,
2013-02-04 12:20:00,12.9,3.3,30.10,North,5,1.1,0.0,65,0.00,CLR,,0.00,WeatherDisplay:10.37,2013-02-04 18:20:00,
2013-02-04 12:25:00,13.1,3.9,30.10,North,5,0.0,0.0,66,0.00,CLR,,0.00,WeatherDisplay:10.37,2013-02-04 18:25:00,
2013-02-04 12:30:00,13.2,3.6,30.10,North,5,0.0,0.0,65,0.00,CLR,,0.00,WeatherDisplay:10.37,2013-02-04 18:30:00,
2013-02-04 12:35:00,13.4,3.5,30.10,North,360,3.5,0.0,64,0.00,CLR,,0.00,WeatherDisplay:10.37,2013-02-04 18:35:00,
2013-02-04 12:40:00,13.6,3.0,30.10,North,360,2.3,2.3,62,0.00,CLR,,0.00,WeatherDisplay:10.37,2013-02-04 18:40:00,
2013-02-04 12:45:00,14.0,3.7,30.09,North,355,3.5,3.5,63,0.00,CLR,,0.00,WeatherDisplay:10.37,2013-02-04 18:45:00,
2013-02-04 12:50:00,13.9,3.3,30.09,North,355,3.5,3.5,62,0.00,CLR,,0.00,WeatherDisplay:10.37,2013-02-04 18:50:00,
2013-02-04 12:55:00,13.7,3.1,30.09,North,355,0.0,0.0,62,0.00,CLR,,0.00,WeatherDisplay:10.37,2013-02-04 18:55:00,
2013-02-04 13:00:00,13.7,2.7,30.09,North,355,2.3,2.3,61,0.00,CLR,,0.00,WeatherDisplay:10.37,2013-02-04 19:00:00,
2013-02-04 13:05:00,13.4,2.4,30.09,North,355,3.5,3.5,61,0.00,CLR,,0.00,WeatherDisplay:10.37,2013-02-04 19:05:00,
2013-02-04 13:10:00,13.3,2.3,30.09,North,350,3.5,3.5,61,0.00,CLR,,0.00,WeatherDisplay:10.37,2013-02-04 19:10:00,
2013-02-04 13:15:00,13.4,2.4,30.09,NNW,346,3.5,3.5,61,0.00,CLR,,0.00,WeatherDisplay:10.37,2013-02-04 19:15:00,
2013-02-04 13:21:00,13.3,2.0,30.09,NW,312,3.5,3.5,60,0.00,CLR,,0.00,WeatherDisplay:10.37,2013-02-04 19:21:00,
2013-02-04 13:26:00,13.3,2.0,30.09,NW,312,2.3,2.3,60,0.00,CLR,,0.00,WeatherDisplay:10.37,2013-02-04 19:26:00,
2013-02-04 13:31:00,13.3,2.0,30.09,NW,312,0.0,0.1,60,0.00,CLR,,0.00,WeatherDisplay:10.37,2013-02-04 19:31:00,
2013-02-04 13:36:00,13.5,2.2,30.09,NW,312,3.0,3.0,60,0.00,CLR,,0.00,WeatherDisplay:10.37,2013-02-04 19:36:00,
2013-02-04 13:41:00,13.6,2.3,30.09,NW,310,5.8,5.8,60,0.00,CLR,,0.00,WeatherDisplay:10.37,2013-02-04 19:41:00,
2013-02-04 13:46:00,13.7,2.7,30.09,NW,310,2.3,2.3,61,0.00,CLR,,0.00,WeatherDisplay:10.37,2013-02-04 19:46:00,
2013-02-04 13:51:00,14.0,3.0,30.08,West,265,5.8,5.8,61,0.00,CLR,,0.00,WeatherDisplay:10.37,2013-02-04 19:51:00,
2013-02-04 13:56:00,13.9,2.6,30.08,WSW,257,3.5,3.5,60,0.00,CLR,,0.00,WeatherDisplay:10.37,2013-02-04 19:56:00,
2013-02-04 14:01:00,13.9,2.6,30.08,WSW,257,3.5,3.5,60,0.00,CLR,,0.00,WeatherDisplay:10.37,2013-02-04 20:01:00,
2013-02-04 14:06:00,13.9,2.6,30.07,WSW,257,0.0,0.0,60,0.00,CLR,,0.00,WeatherDisplay:10.37,2013-02-04 20:06:00,
2013-02-04 14:11:00,14.1,3.1,30.07,WSW,257,4.6,4.6,61,0.00,CLR,,0.00,WeatherDisplay:10.37,2013-02-04 20:11:00,
2013-02-04 14:16:00,14.2,3.2,30.06,WSW,254,4.6,4.6,61,0.00,CLR,,0.00,WeatherDisplay:10.37,2013-02-04 20:16:00,
2013-02-04 14:21:00,14.1,2.7,30.06,WSW,238,9.2,9.2,60,0.00,CLR,,0.00,WeatherDisplay:10.37,2013-02-04 20:21:00,
2013-02-04 14:26:00,13.8,2.1,30.07,West,280,4.6,4.6,59,0.00,CLR,,0.00,WeatherDisplay:10.37,2013-02-04 20:26:00,
2013-02-04 14:31:00,13.6,1.9,30.06,West,271,3.5,3.5,59,0.00,CLR,,0.00,WeatherDisplay:10.37,2013-02-04 20:31:00,
2013-02-04 14:36:00,13.7,2.7,30.06,WSW,238,3.5,3.5,61,0.00,CLR,,0.00,WeatherDisplay:10.37,2013-02-04 20:36:00,
2013-02-04 14:41:00,14.2,3.6,30.05,WSW,238,3.5,3.5,62,0.00,CLR,,0.00,WeatherDisplay:10.37,2013-02-04 20:41:00,
2013-02-04 14:46:00,14.6,3.9,30.05,SW,236,4.6,4.6,62,0.00,CLR,,0.00,WeatherDisplay:10.37,2013-02-04 20:46:00,
2013-02-04 14:51:00,14.4,3.4,30.05,SW,225,6.9,6.9,61,0.00,CLR,,0.00,WeatherDisplay:10.37,2013-02-04 20:51:00,
2013-02-04 14:56:00,14.3,3.6,30.05,SSW,206,5.8,5.8,62,0.00,CLR,,0.00,WeatherDisplay:10.37,2013-02-04 20:56:00,
2013-02-04 15:01:00,14.3,4.0,30.04,WSW,241,4.6,4.6,63,0.00,CLR,,0.00,WeatherDisplay:10.37,2013-02-04 21:01:00,
2013-02-04 15:06:00,14.0,3.4,30.04,WSW,237,5.8,5.8,62,0.00,CLR,,0.00,WeatherDisplay:10.37,2013-02-04 21:06:00,
2013-02-04 15:11:00,14.0,3.7,30.04,SW,223,3.5,3.5,63,0.00,CLR,,0.00,WeatherDisplay:10.37,2013-02-04 21:11:00,
2013-02-04 15:16:00,14.1,3.8,30.04,SW,230,4.6,4.6,63,0.00,CLR,,0.00,WeatherDisplay:10.37,2013-02-04 21:16:00,
2013-02-04 15:21:00,14.1,3.5,30.04,WSW,237,4.6,4.6,62,0.00,CLR,,0.00,WeatherDisplay:10.37,2013-02-04 21:21:00,
2013-02-04 15:26:00,14.1,5.8,30.04,WSW,237,3.5,3.5,69,0.00,CLR,,0.00,WeatherDisplay:10.37,2013-02-04 21:26:00,
2013-02-04 15:31:00,14.3,3.6,30.04,WSW,238,3.5,3.5,62,0.00,CLR,,0.00,WeatherDisplay:10.37,2013-02-04 21:31:00,
2013-02-04 15:36:00,14.4,3.4,30.03,WSW,237,3.5,3.5,61,0.00,CLR,,0.00,WeatherDisplay:10.37,2013-02-04 21:36:00,
2013-02-04 15:41:00,14.1,3.1,30.03,WSW,238,3.5,3.5,61,0.00,CLR,,0.00,WeatherDisplay:10.37,2013-02-04 21:41:00,
2013-02-04 15:46:00,14.0,3.4,30.03,WSW,238,2.3,0.0,62,0.00,CLR,,0.00,WeatherDisplay:10.37,2013-02-04 21:46:00,
2013-02-04 15:51:00,14.0,3.4,30.02,WSW,238,2.0,2.0,62,0.00,CLR,,0.00,WeatherDisplay:10.37,2013-02-04 21:51:00,
2013-02-04 15:56:00,13.8,2.8,30.03,WSW,238,0.0,0.0,61,0.00,CLR,,0.00,WeatherDisplay:10.37,2013-02-04 21:56:00,
2013-02-04 16:01:00,13.7,2.7,30.03,WSW,238,0.0,0.0,61,0.00,CLR,,0.00,WeatherDisplay:10.37,2013-02-04 22:01:00,
2013-02-04 16:06:00,13.6,2.3,30.03,WSW,238,3.5,3.5,60,0.00,CLR,,0.00,WeatherDisplay:10.37,2013-02-04 22:06:00,
2013-02-04 16:11:00,13.4,1.7,30.03,WSW,238,3.5,3.5,59,0.00,CLR,,0.00,WeatherDisplay:10.37,2013-02-04 22:11:00,
2013-02-04 16:16:00,13.2,1.5,30.03,WSW,238,2.3,2.3,59,0.00,CLR,,0.00,WeatherDisplay:10.37,2013-02-04 22:16:00,
2013-02-04 16:21:00,13.3,2.0,30.03,WSW,238,0.0,0.0,60,0.00,CLR,,0.00,WeatherDisplay:10.37,2013-02-04 22:21:00,
2013-02-04 16:26:00,13.3,2.0,30.03,WSW,238,3.5,3.5,60,0.00,CLR,,0.00,WeatherDisplay:10.37,2013-02-04 22:26:00,
2013-02-04 16:31:00,13.1,1.8,30.03,WSW,242,3.5,3.5,60,0.00,CLR,,0.00,WeatherDisplay:10.37,2013-02-04 22:31:00,
2013-02-04 16:36:00,13.0,1.7,30.03,WSW,246,3.5,3.5,60,0.00,CLR,,0.00,WeatherDisplay:10.37,2013-02-04 22:36:00,
2013-02-04 16:41:00,12.9,1.6,30.03,WSW,247,3.5,3.5,60,0.00,CLR,,0.00,WeatherDisplay:10.37,2013-02-04 22:41:00,
2013-02-04 16:46:00,13.0,2.1,30.03,WSW,247,3.5,3.5,61,0.00,CLR,,0.00,WeatherDisplay:10.37,2013-02-04 22:46:00,
2013-02-04 16:51:00,13.0,1.7,30.02,WSW,246,0.0,0.5,60,0.00,CLR,,0.00,WeatherDisplay:10.37,2013-02-04 22:51:00,
2013-02-04 16:56:00,13.0,1.7,30.02,WSW,247,3.5,3.5,60,0.00,CLR,,0.00,WeatherDisplay:10.37,2013-02-04 22:56:00,
2013-02-04 17:01:00,12.9,2.0,30.02,WSW,247,3.5,3.5,61,0.00,CLR,,0.00,WeatherDisplay:10.37,2013-02-04 23:01:00,
2013-02-04 17:06:00,12.9,2.0,30.02,WSW,247,0.0,0.2,61,0.00,CLR,,0.00,WeatherDisplay:10.37,2013-02-04 23:06:00,
2013-02-04 17:11:00,12.8,2.2,30.02,WSW,247,0.0,0.0,62,0.00,CLR,,0.00,WeatherDisplay:10.37,2013-02-04 23:11:00,
2013-02-04 17:16:00,12.5,1.6,30.02,WSW,246,0.0,0.0,61,0.00,CLR,,0.00,WeatherDisplay:10.37,2013-02-04 23:16:00,
2013-02-04 17:21:00,12.2,1.3,30.02,WSW,247,3.5,3.5,61,0.00,CLR,,0.00,WeatherDisplay:10.37,2013-02-04 23:21:00,
2013-02-04 17:26:00,12.0,1.1,30.03,WSW,247,3.5,3.5,61,0.00,CLR,,0.00,WeatherDisplay:10.37,2013-02-04 23:26:00,
2013-02-04 17:31:00,11.8,0.9,30.03,WSW,246,3.5,3.5,61,0.00,CLR,,0.00,WeatherDisplay:10.37,2013-02-04 23:31:00,
2013-02-04 17:36:00,11.6,0.7,30.03,WSW,247,2.3,2.3,61,0.00,CLR,,0.00,WeatherDisplay:10.37,2013-02-04 23:36:00,
2013-02-04 17:41:00,11.3,0.8,30.02,WSW,247,0.0,0.0,62,0.00,CLR,,0.00,WeatherDisplay:10.37,2013-02-04 23:41:00,
2013-02-04 17:46:00,11.0,0.9,30.02,WSW,247,0.0,0.0,63,0.00,CLR,,0.00,WeatherDisplay:10.37,2013-02-04 23:46:00,
2013-02-04 17:51:00,10.8,0.7,30.01,WSW,246,0.0,0.0,63,0.00,CLR,,0.00,WeatherDisplay:10.37,2013-02-04 23:51:00,
2013-02-04 17:56:00,10.7,0.6,30.01,WSW,247,1.1,1.1,63,0.00,CLR,,0.00,WeatherDisplay:10.37,2013-02-04 23:56:00,
2013-02-04 18:01:00,10.5,0.4,30.01,WSW,247,0.0,0.0,63,0.00,CLR,,0.00,WeatherDisplay:10.37,2013-02-05 00:01:00,
2013-02-04 18:06:00,10.4,0.6,30.00,WSW,246,0.0,0.0,64,0.00,CLR,,0.00,WeatherDisplay:10.37,2013-02-05 00:06:00,
2013-02-04 18:11:00,10.2,0.4,30.00,WSW,247,0.0,0.0,64,0.00,CLR,,0.00,WeatherDisplay:10.37,2013-02-05 00:11:00,
2013-02-04 18:16:00,10.1,0.7,30.00,WSW,247,0.0,0.0,65,0.00,CLR,,0.00,WeatherDisplay:10.37,2013-02-05 00:16:00,
2013-02-04 18:21:00,10.0,0.6,30.00,WSW,247,0.0,0.0,65,0.00,CLR,,0.00,WeatherDisplay:10.37,2013-02-05 00:21:00,
2013-02-04 18:26:00,9.9,0.5,29.99,WSW,246,0.0,0.0,65,0.00,CLR,,0.00,WeatherDisplay:10.37,2013-02-05 00:26:00,
2013-02-04 18:31:00,9.9,0.8,29.99,WSW,247,0.0,0.0,66,0.00,CLR,,0.00,WeatherDisplay:10.37,2013-02-05 00:31:00,
2013-02-04 18:36:00,9.9,0.8,29.99,WSW,246,0.0,0.0,66,0.00,CLR,,0.00,WeatherDisplay:10.37,2013-02-05 00:36:00,
2013-02-04 18:41:00,9.9,0.8,29.99,WSW,247,0.0,0.0,66,0.00,CLR,,0.00,WeatherDisplay:10.37,2013-02-05 00:41:00,
2013-02-04 18:46:00,9.9,1.1,29.99,WSW,247,0.0,0.0,67,0.00,CLR,,0.00,WeatherDisplay:10.37,2013-02-05 00:46:00,
2013-02-04 18:51:00,10.0,1.2,29.98,WSW,246,0.0,0.0,67,0.00,CLR,,0.00,WeatherDisplay:10.37,2013-02-05 00:51:00,
2013-02-04 18:56:00,9.9,1.1,29.97,WSW,246,0.0,0.0,67,0.00,CLR,,0.00,WeatherDisplay:10.37,2013-02-05 00:56:00,
2013-02-04 19:01:00,9.9,1.1,29.97,WSW,246,1.1,0.0,67,0.00,CLR,,0.00,WeatherDisplay:10.37,2013-02-05 01:01:00,
2013-02-04 19:06:00,9.9,1.1,29.97,WSW,246,1.1,0.0,67,0.00,CLR,,0.00,WeatherDisplay:10.37,2013-02-05 01:06:00,
2013-02-04 19:11:00,10.0,1.2,29.97,WSW,247,0.0,0.0,67,0.00,CLR,,0.00,WeatherDisplay:10.37,2013-02-05 01:11:00,
2013-02-04 19:16:00,10.2,1.4,29.97,WSW,246,2.3,2.3,67,0.00,CLR,,0.00,WeatherDisplay:10.37,2013-02-05 01:16:00,
2013-02-04 19:22:00,10.3,1.5,29.97,WSW,247,0.0,0.0,67,0.00,CLR,,0.00,WeatherDisplay:10.37,2013-02-05 01:22:00,
2013-02-04 19:27:00,10.3,1.5,29.97,WSW,247,0.0,0.0,67,0.00,CLR,,0.00,WeatherDisplay:10.37,2013-02-05 01:27:00,
2013-02-04 19:32:00,10.3,1.5,29.97,WSW,246,0.0,0.0,67,0.00,CLR,,0.00,WeatherDisplay:10.37,2013-02-05 01:32:00,
2013-02-04 19:37:00,10.4,1.6,29.96,WSW,247,0.0,0.0,67,0.00,CLR,,0.00,WeatherDisplay:10.37,2013-02-05 01:37:00,
2013-02-04 19:42:00,10.5,1.7,29.95,WSW,241,2.3,2.3,67,0.00,CLR,,0.00,WeatherDisplay:10.37,2013-02-05 01:42:00,
2013-02-04 19:47:00,10.5,1.7,29.95,South,188,3.5,3.5,67,0.00,CLR,,0.00,WeatherDisplay:10.37,2013-02-05 01:47:00,
2013-02-04 19:52:00,10.5,1.4,29.95,SSW,196,3.5,3.5,66,0.00,CLR,,0.00,WeatherDisplay:10.37,2013-02-05 01:52:00,
2013-02-04 19:57:00,10.5,1.7,29.95,SSE,163,3.5,3.5,67,0.00,CLR,,0.00,WeatherDisplay:10.37,2013-02-05 01:57:00,
2013-02-04 20:02:00,10.6,1.5,29.95,SSE,152,4.6,4.6,66,0.00,CLR,,0.00,WeatherDisplay:10.37,2013-02-05 02:02:00,
2013-02-04 20:07:00,10.6,1.8,29.95,South,184,2.3,2.3,67,0.00,CLR,,0.00,WeatherDisplay:10.37,2013-02-05 02:07:00,
2013-02-04 20:12:00,10.5,1.7,29.95,South,190,2.3,2.3,67,0.00,CLR,,0.00,WeatherDisplay:10.37,2013-02-05 02:12:00,
2013-02-04 20:17:00,10.5,2.0,29.95,South,172,2.3,2.3,68,0.00,CLR,,0.00,WeatherDisplay:10.37,2013-02-05 02:17:00,
2013-02-04 20:22:00,10.5,2.3,29.95,SSW,200,2.3,2.3,69,0.00,CLR,,0.00,WeatherDisplay:10.37,2013-02-05 02:22:00,
2013-02-04 20:27:00,10.5,2.3,29.95,South,182,3.5,3.5,69,0.00,CLR,,0.00,WeatherDisplay:10.37,2013-02-05 02:27:00,
2013-02-04 20:32:00,10.5,2.3,29.95,South,183,4.6,4.6,69,0.00,CLR,,0.00,WeatherDisplay:10.37,2013-02-05 02:32:00,
2013-02-04 20:37:00,10.5,2.3,29.95,South,183,2.3,2.3,69,0.00,CLR,,0.00,WeatherDisplay:10.37,2013-02-05 02:37:00,
2013-02-04 20:42:00,10.6,2.7,29.94,South,190,3.5,3.5,70,0.00,CLR,,0.00,WeatherDisplay:10.37,2013-02-05 02:42:00,
2013-02-04 20:47:00,10.7,2.8,29.95,South,190,2.3,2.3,70,0.00,CLR,,0.00,WeatherDisplay:10.37,2013-02-05 02:47:00,
2013-02-04 20:52:00,10.7,2.8,29.94,South,190,3.5,3.5,70,0.00,CLR,,0.00,WeatherDisplay:10.37,2013-02-05 02:52:00,
2013-02-04 20:57:00,10.8,3.2,29.95,South,187,3.5,3.5,71,0.00,CLR,,0.00,WeatherDisplay:10.37,2013-02-05 02:57:00,
2013-02-04 21:02:00,10.9,3.3,29.95,South,187,1.1,1.1,71,0.00,CLR,,0.00,WeatherDisplay:10.37,2013-02-05 03:02:00,
2013-02-04 21:07:00,11.0,3.4,29.95,South,186,2.3,2.3,71,0.00,CLR,,0.00,WeatherDisplay:10.37,2013-02-05 03:07:00,
2013-02-04 21:12:00,11.0,3.4,29.95,South,182,2.3,2.3,71,0.00,CLR,,0.00,WeatherDisplay:10.37,2013-02-05 03:12:00,
2013-02-04 21:17:00,11.1,3.5,29.95,SSW,198,1.1,0.0,71,0.00,CLR,,0.00,WeatherDisplay:10.37,2013-02-05 03:17:00,
2013-02-04 21:22:00,11.2,3.9,29.95,SSW,198,3.5,3.5,72,0.00,CLR,,0.00,WeatherDisplay:10.37,2013-02-05 03:22:00,
2013-02-04 21:27:00,11.2,3.6,29.95,SSW,194,1.1,1.1,71,0.00,CLR,,0.00,WeatherDisplay:10.37,2013-02-05 03:27:00,
2013-02-04 21:32:00,11.3,4.0,29.94,South,186,4.6,4.6,72,0.00,CLR,,0.00,WeatherDisplay:10.37,2013-02-05 03:32:00,
2013-02-04 21:37:00,11.4,4.1,29.94,SSW,204,5.8,5.8,72,0.00,CLR,,0.00,WeatherDisplay:10.37,2013-02-05 03:37:00,
2013-02-04 21:42:00,11.4,4.1,29.94,SSW,205,3.5,3.5,72,0.00,CLR,,0.00,WeatherDisplay:10.37,2013-02-05 03:42:00,
2013-02-04 21:47:00,11.4,4.1,29.94,South,187,2.3,2.3,72,0.00,CLR,,0.00,WeatherDisplay:10.37,2013-02-05 03:47:00,
2013-02-04 21:52:00,11.5,4.5,29.93,South,178,4.0,4.0,73,0.00,CLR,,0.00,WeatherDisplay:10.37,2013-02-05 03:52:00,
2013-02-04 21:57:00,11.5,4.8,29.93,South,173,4.6,4.6,74,0.00,CLR,,0.00,WeatherDisplay:10.37,2013-02-05 03:57:00,
2013-02-04 22:02:00,11.6,5.2,29.93,South,173,5.8,5.8,75,0.00,CLR,,0.00,WeatherDisplay:10.37,2013-02-05 04:02:00,
2013-02-04 22:07:00,11.6,5.5,29.93,South,178,3.5,3.5,76,0.00,CLR,,0.00,WeatherDisplay:10.37,2013-02-05 04:07:00,
2013-02-04 22:12:00,11.6,5.8,29.92,SSW,198,2.3,2.3,77,0.00,CLR,,0.00,WeatherDisplay:10.37,2013-02-05 04:12:00,
2013-02-04 22:17:00,11.5,6.2,29.92,SE,134,9.2,9.2,79,0.00,CLR,,0.00,WeatherDisplay:10.37,2013-02-05 04:17:00,
2013-02-04 22:22:00,11.6,6.6,29.91,SSE,151,6.9,6.9,80,0.00,CLR,,0.00,WeatherDisplay:10.37,2013-02-05 04:22:00,
2013-02-04 22:27:00,11.6,6.6,29.91,South,182,9.0,9.0,80,0.00,CLR,,0.00,WeatherDisplay:10.37,2013-02-05 04:27:00,
2013-02-04 22:32:00,11.8,7.1,29.90,South,178,12.7,12.7,81,0.00,CLR,,0.00,WeatherDisplay:10.37,2013-02-05 04:32:00,
2013-02-04 22:37:00,11.9,7.5,29.90,SSW,205,5.0,5.0,82,0.00,CLR,,0.00,WeatherDisplay:10.37,2013-02-05 04:37:00,
2013-02-04 22:42:00,12.0,7.8,29.89,South,178,4.6,4.6,83,0.00,CLR,,0.00,WeatherDisplay:10.37,2013-02-05 04:42:00,
2013-02-04 22:47:00,12.0,7.8,29.89,South,188,10.4,10.4,83,0.00,CLR,,0.00,WeatherDisplay:10.37,2013-02-05 04:47:00,
2013-02-04 22:52:00,12.0,7.8,29.89,South,185,6.9,6.9,83,0.00,CLR,,0.00,WeatherDisplay:10.37,2013-02-05 04:52:00,
2013-02-04 22:57:00,12.1,8.2,29.88,SSW,199,9.2,9.2,84,0.00,CLR,,0.00,WeatherDisplay:10.37,2013-02-05 04:57:00,
2013-02-04 23:00:00,12.1,8.2,29.88,SSE,147,7.0,7.0,84,0.00,CLR,,0.00,WeatherDisplay:10.37,2013-02-05 05:00:00,
2013-02-04 23:05:00,12.1,8.2,29.87,SSE,148,3.5,3.5,84,0.00,CLR,,0.00,WeatherDisplay:10.37,2013-02-05 05:05:00,
2013-02-04 23:10:00,12.2,8.3,29.86,South,175,5.8,5.8,84,0.00,CLR,,0.00,WeatherDisplay:10.37,2013-02-05 05:10:00,
2013-02-04 23:15:00,12.3,8.7,29.85,SE,142,5.8,5.8,85,0.00,CLR,,0.00,WeatherDisplay:10.37,2013-02-05 05:15:00,
2013-02-04 23:20:00,12.5,8.8,29.85,SSE,150,9.2,9.2,85,0.00,CLR,,0.00,WeatherDisplay:10.37,2013-02-05 05:20:00,
2013-02-04 23:25:00,12.6,8.9,29.85,SSE,159,15.0,15.0,85,0.00,CLR,,0.00,WeatherDisplay:10.37,2013-02-05 05:25:00,
2013-02-04 23:30:00,12.8,9.1,29.84,SSE,165,8.1,8.1,85,0.00,CLR,,0.00,WeatherDisplay:10.37,2013-02-05 05:30:00,
2013-02-04 23:35:00,13.1,9.4,29.84,SSE,155,6.9,6.9,85,0.00,CLR,,0.00,WeatherDisplay:10.37,2013-02-05 05:35:00,
2013-02-04 23:40:00,13.4,10.0,29.83,SSW,196,8.1,8.1,86,0.00,CLR,,0.00,WeatherDisplay:10.37,2013-02-05 05:40:00,
2013-02-04 23:45:00,13.9,10.5,29.83,SSW,208,4.6,4.6,86,0.00,CLR,,0.00,WeatherDisplay:10.37,2013-02-05 05:45:00,
2013-02-04 23:50:00,14.4,11.0,29.82,SSW,213,18.4,18.4,86,0.00,CLR,,0.00,WeatherDisplay:10.37,2013-02-05 05:50:00,
2013-02-04 23:55:00,14.9,11.5,29.82,SSE,163,13.8,13.8,86,0.00,CLR,,0.00,WeatherDisplay:10.37,2013-02-05 05:55:00,